sensor_id;sensor_type;location;lat;lon;timestamp;P1;durP1;ratioP1;P2;durP2;ratioP2
71838;SDS011;59687;37.520;15.068;2022-10-15T00:01:09;15.38;;;9.15;;
71838;SDS011;59687;37.520;15.068;2022-10-15T00:03:39;13.13;;;6.97;;
71838;SDS011;59687;37.520;15.068;2022-10-15T00:06:08;14.13;;;8.10;;
71838;SDS011;59687;37.520;15.068;2022-10-15T00:08:38;14.70;;;8.18;;
71838;SDS011;59687;37.520;15.068;2022-10-15T00:11:07;14.88;;;7.53;;
71838;SDS011;59687;37.520;15.068;2022-10-15T00:13:38;15.48;;;8.07;;
71838;SDS011;59687;37.520;15.068;2022-10-15T00:16:07;13.00;;;7.33;;
71838;SDS011;59687;37.520;15.068;2022-10-15T00:18:36;13.63;;;7.75;;
71838;SDS011;59687;37.520;15.068;2022-10-15T00:21:07;13.38;;;7.40;;
71838;SDS011;59687;37.520;15.068;2022-10-15T00:23:36;16.33;;;7.60;;
71838;SDS011;59687;37.520;15.068;2022-10-15T00:26:04;12.15;;;7.15;;
71838;SDS011;59687;37.520;15.068;2022-10-15T00:28:36;12.37;;;6.83;;
71838;SDS011;59687;37.520;15.068;2022-10-15T00:31:06;16.63;;;7.25;;
71838;SDS011;59687;37.520;15.068;2022-10-15T00:33:45;12.55;;;7.38;;
71838;SDS011;59687;37.520;15.068;2022-10-15T00:36:22;13.25;;;7.15;;
71838;SDS011;59687;37.520;15.068;2022-10-15T00:38:51;14.25;;;7.35;;
71838;SDS011;59687;37.520;15.068;2022-10-15T00:41:22;14.80;;;7.67;;
71838;SDS011;59687;37.520;15.068;2022-10-15T00:52:11;11.77;;;6.75;;
71838;SDS011;59687;37.520;15.068;2022-10-15T00:54:43;12.87;;;6.40;;
71838;SDS011;59687;37.520;15.068;2022-10-15T00:57:15;13.13;;;6.18;;
71838;SDS011;59687;37.520;15.068;2022-10-15T00:59:46;12.63;;;6.40;;
71838;SDS011;59687;37.520;15.068;2022-10-15T01:02:17;10.63;;;5.60;;
71838;SDS011;59687;37.520;15.068;2022-10-15T01:04:45;11.10;;;5.65;;
71838;SDS011;59687;37.520;15.068;2022-10-15T01:07:13;11.77;;;5.53;;
71838;SDS011;59687;37.520;15.068;2022-10-15T01:09:43;11.90;;;6.05;;
71838;SDS011;59687;37.520;15.068;2022-10-15T01:12:13;10.70;;;5.78;;
71838;SDS011;59687;37.520;15.068;2022-10-15T01:17:47;11.55;;;5.55;;
71838;SDS011;59687;37.520;15.068;2022-10-15T01:20:56;11.10;;;5.30;;
71838;SDS011;59687;37.520;15.068;2022-10-15T01:29:33;9.80;;;5.13;;
71838;SDS011;59687;37.520;15.068;2022-10-15T01:32:26;9.10;;;5.10;;
71838;SDS011;59687;37.520;15.068;2022-10-15T01:35:01;8.30;;;4.70;;
71838;SDS011;59687;37.520;15.068;2022-10-15T01:40:08;10.02;;;4.70;;
71838;SDS011;59687;37.520;15.068;2022-10-15T01:45:38;13.32;;;5.43;;
71838;SDS011;59687;37.520;15.068;2022-10-15T01:48:18;9.43;;;5.07;;
71838;SDS011;59687;37.520;15.068;2022-10-15T01:50:49;10.95;;;4.90;;
71838;SDS011;59687;37.520;15.068;2022-10-15T01:53:21;10.95;;;4.75;;
71838;SDS011;59687;37.520;15.068;2022-10-15T01:55:56;9.18;;;5.00;;
71838;SDS011;59687;37.520;15.068;2022-10-15T01:58:26;8.00;;;4.50;;
71838;SDS011;59687;37.520;15.068;2022-10-15T02:00:56;9.57;;;4.80;;
71838;SDS011;59687;37.520;15.068;2022-10-15T02:03:24;8.52;;;4.40;;
71838;SDS011;59687;37.520;15.068;2022-10-15T02:05:55;8.90;;;4.75;;
71838;SDS011;59687;37.520;15.068;2022-10-15T02:14:40;8.97;;;4.67;;
71838;SDS011;59687;37.520;15.068;2022-10-15T02:17:17;9.65;;;4.68;;
71838;SDS011;59687;37.520;15.068;2022-10-15T02:19:52;10.55;;;5.13;;
71838;SDS011;59687;37.520;15.068;2022-10-15T02:22:35;9.27;;;5.00;;
71838;SDS011;59687;37.520;15.068;2022-10-15T02:25:08;11.70;;;5.43;;
71838;SDS011;59687;37.520;15.068;2022-10-15T02:27:40;9.50;;;5.67;;
71838;SDS011;59687;37.520;15.068;2022-10-15T02:30:12;10.55;;;5.70;;
71838;SDS011;59687;37.520;15.068;2022-10-15T02:32:42;7.75;;;4.53;;
71838;SDS011;59687;37.520;15.068;2022-10-15T02:35:13;10.23;;;5.75;;
71838;SDS011;59687;37.520;15.068;2022-10-15T02:37:43;11.40;;;5.47;;
71838;SDS011;59687;37.520;15.068;2022-10-15T02:40:23;9.87;;;6.03;;
71838;SDS011;59687;37.520;15.068;2022-10-15T02:42:55;9.50;;;5.32;;
71838;SDS011;59687;37.520;15.068;2022-10-15T02:45:23;13.02;;;6.80;;
71838;SDS011;59687;37.520;15.068;2022-10-15T02:47:50;13.25;;;6.30;;
71838;SDS011;59687;37.520;15.068;2022-10-15T02:50:17;10.77;;;5.50;;
71838;SDS011;59687;37.520;15.068;2022-10-15T02:52:45;9.77;;;5.70;;
71838;SDS011;59687;37.520;15.068;2022-10-15T02:55:12;11.43;;;5.53;;
71838;SDS011;59687;37.520;15.068;2022-10-15T02:57:40;9.68;;;5.20;;
71838;SDS011;59687;37.520;15.068;2022-10-15T03:00:07;11.23;;;5.60;;
71838;SDS011;59687;37.520;15.068;2022-10-15T03:02:39;10.10;;;5.85;;
71838;SDS011;59687;37.520;15.068;2022-10-15T03:05:06;10.53;;;5.70;;
71838;SDS011;59687;37.520;15.068;2022-10-15T03:07:34;10.27;;;5.25;;
71838;SDS011;59687;37.520;15.068;2022-10-15T03:10:02;9.57;;;5.25;;
71838;SDS011;59687;37.520;15.068;2022-10-15T03:12:31;12.07;;;5.85;;
71838;SDS011;59687;37.520;15.068;2022-10-15T03:14:58;12.63;;;6.15;;
71838;SDS011;59687;37.520;15.068;2022-10-15T03:17:26;9.13;;;5.33;;
71838;SDS011;59687;37.520;15.068;2022-10-15T03:19:54;9.18;;;5.00;;
71838;SDS011;59687;37.520;15.068;2022-10-15T03:22:22;9.23;;;4.60;;
71838;SDS011;59687;37.520;15.068;2022-10-15T03:24:51;10.98;;;5.50;;
71838;SDS011;59687;37.520;15.068;2022-10-15T03:27:24;10.60;;;4.90;;
71838;SDS011;59687;37.520;15.068;2022-10-15T03:29:52;9.57;;;4.90;;
71838;SDS011;59687;37.520;15.068;2022-10-15T03:32:21;9.45;;;5.32;;
71838;SDS011;59687;37.520;15.068;2022-10-15T03:34:50;10.38;;;5.10;;
71838;SDS011;59687;37.520;15.068;2022-10-15T03:37:21;11.07;;;5.82;;
71838;SDS011;59687;37.520;15.068;2022-10-15T03:39:48;10.32;;;5.15;;
71838;SDS011;59687;37.520;15.068;2022-10-15T03:42:17;10.73;;;4.83;;
71838;SDS011;59687;37.520;15.068;2022-10-15T03:44:45;10.13;;;4.30;;
71838;SDS011;59687;37.520;15.068;2022-10-15T03:47:16;9.52;;;4.75;;
71838;SDS011;59687;37.520;15.068;2022-10-15T03:49:46;8.90;;;4.82;;
71838;SDS011;59687;37.520;15.068;2022-10-15T03:52:15;10.25;;;5.13;;
71838;SDS011;59687;37.520;15.068;2022-10-15T03:54:46;13.47;;;5.37;;
71838;SDS011;59687;37.520;15.068;2022-10-15T03:57:16;9.43;;;5.05;;
71838;SDS011;59687;37.520;15.068;2022-10-15T03:59:49;11.75;;;5.47;;
71838;SDS011;59687;37.520;15.068;2022-10-15T04:02:17;9.38;;;5.18;;
71838;SDS011;59687;37.520;15.068;2022-10-15T04:04:45;9.63;;;5.00;;
71838;SDS011;59687;37.520;15.068;2022-10-15T04:07:12;8.93;;;5.33;;
71838;SDS011;59687;37.520;15.068;2022-10-15T04:09:40;11.60;;;4.95;;
71838;SDS011;59687;37.520;15.068;2022-10-15T04:12:30;9.98;;;5.63;;
71838;SDS011;59687;37.520;15.068;2022-10-15T04:14:57;11.13;;;6.03;;
71838;SDS011;59687;37.520;15.068;2022-10-15T04:17:24;9.60;;;5.95;;
71838;SDS011;59687;37.520;15.068;2022-10-15T04:19:51;9.57;;;5.07;;
71838;SDS011;59687;37.520;15.068;2022-10-15T04:22:20;11.07;;;5.18;;
71838;SDS011;59687;37.520;15.068;2022-10-15T04:24:53;10.65;;;5.65;;
71838;SDS011;59687;37.520;15.068;2022-10-15T04:27:27;10.10;;;5.00;;
71838;SDS011;59687;37.520;15.068;2022-10-15T04:30:04;8.80;;;5.10;;
71838;SDS011;59687;37.520;15.068;2022-10-15T04:32:31;10.33;;;5.50;;
71838;SDS011;59687;37.520;15.068;2022-10-15T04:34:59;8.90;;;4.80;;
71838;SDS011;59687;37.520;15.068;2022-10-15T04:37:46;11.70;;;5.43;;
71838;SDS011;59687;37.520;15.068;2022-10-15T04:40:14;9.02;;;4.82;;
71838;SDS011;59687;37.520;15.068;2022-10-15T04:42:41;10.20;;;4.85;;
71838;SDS011;59687;37.520;15.068;2022-10-15T04:45:11;11.40;;;5.20;;
71838;SDS011;59687;37.520;15.068;2022-10-15T04:47:38;9.13;;;5.32;;
71838;SDS011;59687;37.520;15.068;2022-10-15T04:50:13;8.15;;;4.47;;
71838;SDS011;59687;37.520;15.068;2022-10-15T04:53:19;9.40;;;5.20;;
71838;SDS011;59687;37.520;15.068;2022-10-15T04:55:51;11.43;;;5.43;;
71838;SDS011;59687;37.520;15.068;2022-10-15T04:58:19;11.43;;;5.10;;
71838;SDS011;59687;37.520;15.068;2022-10-15T05:00:47;13.18;;;5.22;;
71838;SDS011;59687;37.520;15.068;2022-10-15T05:03:35;11.43;;;5.95;;
71838;SDS011;59687;37.520;15.068;2022-10-15T05:06:04;11.60;;;5.20;;
71838;SDS011;59687;37.520;15.068;2022-10-15T05:08:40;11.82;;;5.18;;
71838;SDS011;59687;37.520;15.068;2022-10-15T05:11:22;9.67;;;5.20;;
71838;SDS011;59687;37.520;15.068;2022-10-15T05:13:56;9.18;;;5.15;;
71838;SDS011;59687;37.520;15.068;2022-10-15T05:16:26;12.30;;;5.40;;
71838;SDS011;59687;37.520;15.068;2022-10-15T05:19:00;10.23;;;4.95;;
71838;SDS011;59687;37.520;15.068;2022-10-15T05:21:30;10.63;;;4.78;;
71838;SDS011;59687;37.520;15.068;2022-10-15T05:24:01;9.87;;;5.13;;
71838;SDS011;59687;37.520;15.068;2022-10-15T05:26:52;8.25;;;4.78;;
71838;SDS011;59687;37.520;15.068;2022-10-15T05:29:21;9.48;;;4.80;;
71838;SDS011;59687;37.520;15.068;2022-10-15T05:31:49;9.30;;;4.32;;
71838;SDS011;59687;37.520;15.068;2022-10-15T05:34:21;9.52;;;5.55;;
71838;SDS011;59687;37.520;15.068;2022-10-15T05:36:54;10.30;;;6.20;;
71838;SDS011;59687;37.520;15.068;2022-10-15T05:39:20;10.15;;;4.63;;
71838;SDS011;59687;37.520;15.068;2022-10-15T05:41:48;8.88;;;4.15;;
71838;SDS011;59687;37.520;15.068;2022-10-15T05:44:15;7.60;;;4.13;;
71838;SDS011;59687;37.520;15.068;2022-10-15T05:46:42;9.68;;;4.20;;
71838;SDS011;59687;37.520;15.068;2022-10-15T05:49:17;10.97;;;6.93;;
71838;SDS011;59687;37.520;15.068;2022-10-15T05:51:52;10.43;;;6.60;;
71838;SDS011;59687;37.520;15.068;2022-10-15T05:54:37;9.88;;;4.95;;
71838;SDS011;59687;37.520;15.068;2022-10-15T05:57:04;9.35;;;5.50;;
71838;SDS011;59687;37.520;15.068;2022-10-15T05:59:31;13.70;;;7.60;;
71838;SDS011;59687;37.520;15.068;2022-10-15T06:01:58;11.33;;;5.63;;
71838;SDS011;59687;37.520;15.068;2022-10-15T06:04:27;15.63;;;7.40;;
71838;SDS011;59687;37.520;15.068;2022-10-15T06:06:57;13.60;;;10.68;;
71838;SDS011;59687;37.520;15.068;2022-10-15T06:09:24;9.38;;;5.63;;
71838;SDS011;59687;37.520;15.068;2022-10-15T06:11:51;9.75;;;6.50;;
71838;SDS011;59687;37.520;15.068;2022-10-15T06:14:23;14.17;;;10.27;;
71838;SDS011;59687;37.520;15.068;2022-10-15T06:16:50;14.80;;;9.18;;
71838;SDS011;59687;37.520;15.068;2022-10-15T06:19:20;11.70;;;7.50;;
71838;SDS011;59687;37.520;15.068;2022-10-15T06:21:47;11.93;;;6.93;;
71838;SDS011;59687;37.520;15.068;2022-10-15T06:24:14;11.75;;;6.55;;
71838;SDS011;59687;37.520;15.068;2022-10-15T06:26:41;10.70;;;5.73;;
71838;SDS011;59687;37.520;15.068;2022-10-15T06:29:08;12.75;;;6.00;;
71838;SDS011;59687;37.520;15.068;2022-10-15T06:31:39;10.93;;;5.70;;
71838;SDS011;59687;37.520;15.068;2022-10-15T06:34:06;14.48;;;6.03;;
71838;SDS011;59687;37.520;15.068;2022-10-15T06:36:33;10.35;;;6.05;;
71838;SDS011;59687;37.520;15.068;2022-10-15T06:39:00;9.53;;;5.90;;
71838;SDS011;59687;37.520;15.068;2022-10-15T06:41:26;10.27;;;5.90;;
71838;SDS011;59687;37.520;15.068;2022-10-15T06:43:55;10.52;;;5.95;;
71838;SDS011;59687;37.520;15.068;2022-10-15T06:46:22;9.27;;;5.22;;
71838;SDS011;59687;37.520;15.068;2022-10-15T06:48:49;11.52;;;5.68;;
71838;SDS011;59687;37.520;15.068;2022-10-15T06:51:17;10.60;;;6.40;;
71838;SDS011;59687;37.520;15.068;2022-10-15T06:53:48;9.38;;;6.05;;
71838;SDS011;59687;37.520;15.068;2022-10-15T06:56:16;9.32;;;6.28;;
71838;SDS011;59687;37.520;15.068;2022-10-15T06:58:44;9.95;;;5.47;;
71838;SDS011;59687;37.520;15.068;2022-10-15T07:01:12;9.93;;;5.90;;
71838;SDS011;59687;37.520;15.068;2022-10-15T07:03:42;10.93;;;6.67;;
71838;SDS011;59687;37.520;15.068;2022-10-15T07:06:10;11.63;;;8.60;;
71838;SDS011;59687;37.520;15.068;2022-10-15T07:08:37;10.52;;;6.95;;
71838;SDS011;59687;37.520;15.068;2022-10-15T07:11:04;9.50;;;5.65;;
71838;SDS011;59687;37.520;15.068;2022-10-15T07:13:34;11.95;;;5.60;;
71838;SDS011;59687;37.520;15.068;2022-10-15T07:16:04;9.60;;;5.77;;
71838;SDS011;59687;37.520;15.068;2022-10-15T07:18:33;10.40;;;6.03;;
71838;SDS011;59687;37.520;15.068;2022-10-15T07:21:03;10.57;;;6.63;;
71838;SDS011;59687;37.520;15.068;2022-10-15T07:23:31;10.63;;;6.88;;
71838;SDS011;59687;37.520;15.068;2022-10-15T07:25:59;15.98;;;7.38;;
71838;SDS011;59687;37.520;15.068;2022-10-15T07:28:27;13.63;;;8.33;;
71838;SDS011;59687;37.520;15.068;2022-10-15T07:31:03;10.80;;;7.10;;
71838;SDS011;59687;37.520;15.068;2022-10-15T07:33:35;11.15;;;6.63;;
71838;SDS011;59687;37.520;15.068;2022-10-15T07:36:03;10.02;;;6.15;;
71838;SDS011;59687;37.520;15.068;2022-10-15T07:38:34;12.23;;;5.63;;
71838;SDS011;59687;37.520;15.068;2022-10-15T07:41:04;11.90;;;6.40;;
71838;SDS011;59687;37.520;15.068;2022-10-15T07:43:40;9.23;;;5.60;;
71838;SDS011;59687;37.520;15.068;2022-10-15T07:46:08;9.25;;;6.05;;
71838;SDS011;59687;37.520;15.068;2022-10-15T07:48:35;8.75;;;4.80;;
71838;SDS011;59687;37.520;15.068;2022-10-15T07:51:04;8.32;;;4.55;;
71838;SDS011;59687;37.520;15.068;2022-10-15T07:53:33;12.70;;;5.47;;
71838;SDS011;59687;37.520;15.068;2022-10-15T07:56:01;17.33;;;13.98;;
71838;SDS011;59687;37.520;15.068;2022-10-15T07:58:34;8.48;;;5.10;;
71838;SDS011;59687;37.520;15.068;2022-10-15T08:01:06;8.05;;;3.92;;
71838;SDS011;59687;37.520;15.068;2022-10-15T08:03:35;7.07;;;4.13;;
71838;SDS011;59687;37.520;15.068;2022-10-15T08:06:03;8.27;;;4.80;;
71838;SDS011;59687;37.520;15.068;2022-10-15T08:08:32;7.60;;;4.15;;
71838;SDS011;59687;37.520;15.068;2022-10-15T08:11:07;6.50;;;3.50;;
71838;SDS011;59687;37.520;15.068;2022-10-15T08:13:36;7.60;;;4.03;;
71838;SDS011;59687;37.520;15.068;2022-10-15T08:16:09;6.43;;;2.90;;
71838;SDS011;59687;37.520;15.068;2022-10-15T08:18:38;5.67;;;3.10;;
71838;SDS011;59687;37.520;15.068;2022-10-15T08:21:06;7.45;;;3.63;;
71838;SDS011;59687;37.520;15.068;2022-10-15T08:23:34;6.53;;;3.15;;
71838;SDS011;59687;37.520;15.068;2022-10-15T08:26:03;7.45;;;3.17;;
71838;SDS011;59687;37.520;15.068;2022-10-15T08:28:30;7.32;;;3.00;;
71838;SDS011;59687;37.520;15.068;2022-10-15T08:30:58;5.80;;;2.80;;
71838;SDS011;59687;37.520;15.068;2022-10-15T08:33:29;6.82;;;2.78;;
71838;SDS011;59687;37.520;15.068;2022-10-15T08:35:56;7.35;;;2.70;;
71838;SDS011;59687;37.520;15.068;2022-10-15T08:38:23;5.45;;;2.03;;
71838;SDS011;59687;37.520;15.068;2022-10-15T08:40:51;5.43;;;2.30;;
71838;SDS011;59687;37.520;15.068;2022-10-15T08:43:22;5.13;;;2.33;;
71838;SDS011;59687;37.520;15.068;2022-10-15T08:45:57;6.80;;;2.83;;
71838;SDS011;59687;37.520;15.068;2022-10-15T08:48:31;6.05;;;2.70;;
71838;SDS011;59687;37.520;15.068;2022-10-15T08:51:13;6.85;;;2.60;;
71838;SDS011;59687;37.520;15.068;2022-10-15T08:53:45;5.03;;;2.30;;
71838;SDS011;59687;37.520;15.068;2022-10-15T08:56:23;7.50;;;2.57;;
71838;SDS011;59687;37.520;15.068;2022-10-15T09:02:20;6.88;;;2.50;;
71838;SDS011;59687;37.520;15.068;2022-10-15T09:05:29;6.40;;;2.40;;
71838;SDS011;59687;37.520;15.068;2022-10-15T09:13:59;7.10;;;2.50;;
71838;SDS011;59687;37.520;15.068;2022-10-15T09:16:28;7.05;;;2.95;;
71838;SDS011;59687;37.520;15.068;2022-10-15T09:19:01;5.57;;;3.15;;
71838;SDS011;59687;37.520;15.068;2022-10-15T09:21:32;6.47;;;2.65;;
71838;SDS011;59687;37.520;15.068;2022-10-15T09:24:03;5.83;;;2.43;;
71838;SDS011;59687;37.520;15.068;2022-10-15T09:29:27;6.28;;;2.55;;
71838;SDS011;59687;37.520;15.068;2022-10-15T09:42:51;5.43;;;2.58;;
71838;SDS011;59687;37.520;15.068;2022-10-15T09:45:20;7.43;;;2.75;;
71838;SDS011;59687;37.520;15.068;2022-10-15T09:47:49;5.35;;;2.28;;
71838;SDS011;59687;37.520;15.068;2022-10-15T09:50:20;5.80;;;2.57;;
71838;SDS011;59687;37.520;15.068;2022-10-15T09:55:32;7.75;;;2.50;;
71838;SDS011;59687;37.520;15.068;2022-10-15T09:58:05;6.07;;;2.15;;
71838;SDS011;59687;37.520;15.068;2022-10-15T10:00:51;7.22;;;2.70;;
71838;SDS011;59687;37.520;15.068;2022-10-15T10:03:23;5.93;;;2.80;;
71838;SDS011;59687;37.520;15.068;2022-10-15T10:05:58;7.25;;;2.67;;
71838;SDS011;59687;37.520;15.068;2022-10-15T10:08:51;5.07;;;2.30;;
71838;SDS011;59687;37.520;15.068;2022-10-15T10:11:22;5.70;;;2.25;;
71838;SDS011;59687;37.520;15.068;2022-10-15T10:13:58;8.10;;;2.50;;
71838;SDS011;59687;37.520;15.068;2022-10-15T10:16:26;5.17;;;2.40;;
71838;SDS011;59687;37.520;15.068;2022-10-15T10:21:33;10.82;;;7.78;;
71838;SDS011;59687;37.520;15.068;2022-10-15T10:26:46;5.55;;;2.45;;
71838;SDS011;59687;37.520;15.068;2022-10-15T10:29:17;6.23;;;2.30;;
71838;SDS011;59687;37.520;15.068;2022-10-15T10:31:58;6.80;;;2.85;;
71838;SDS011;59687;37.520;15.068;2022-10-15T10:34:29;5.63;;;2.22;;
71838;SDS011;59687;37.520;15.068;2022-10-15T10:37:00;4.82;;;2.05;;
71838;SDS011;59687;37.520;15.068;2022-10-15T10:39:31;5.90;;;2.20;;
71838;SDS011;59687;37.520;15.068;2022-10-15T10:42:09;7.53;;;2.60;;
71838;SDS011;59687;37.520;15.068;2022-10-15T10:44:50;5.57;;;2.60;;
71838;SDS011;59687;37.520;15.068;2022-10-15T10:47:22;5.07;;;2.60;;
71838;SDS011;59687;37.520;15.068;2022-10-15T10:49:54;6.55;;;2.83;;
71838;SDS011;59687;37.520;15.068;2022-10-15T10:52:24;5.43;;;2.15;;
71838;SDS011;59687;37.520;15.068;2022-10-15T10:57:48;5.65;;;2.30;;
71838;SDS011;59687;37.520;15.068;2022-10-15T11:00:27;5.90;;;3.00;;
71838;SDS011;59687;37.520;15.068;2022-10-15T11:03:04;5.47;;;2.35;;
71838;SDS011;59687;37.520;15.068;2022-10-15T11:05:33;6.60;;;2.60;;
71838;SDS011;59687;37.520;15.068;2022-10-15T11:11:01;5.43;;;2.70;;
71838;SDS011;59687;37.520;15.068;2022-10-15T11:16:41;5.47;;;2.35;;
71838;SDS011;59687;37.520;15.068;2022-10-15T11:19:27;5.82;;;2.10;;
71838;SDS011;59687;37.520;15.068;2022-10-15T11:22:33;4.57;;;2.20;;
71838;SDS011;59687;37.520;15.068;2022-10-15T11:25:24;6.30;;;2.67;;
71838;SDS011;59687;37.520;15.068;2022-10-15T11:28:15;5.60;;;2.72;;
71838;SDS011;59687;37.520;15.068;2022-10-15T11:31:21;5.18;;;2.42;;
71838;SDS011;59687;37.520;15.068;2022-10-15T11:37:13;7.30;;;2.33;;
71838;SDS011;59687;37.520;15.068;2022-10-15T11:43:32;7.22;;;2.08;;
71838;SDS011;59687;37.520;15.068;2022-10-15T11:46:13;5.68;;;2.30;;
71838;SDS011;59687;37.520;15.068;2022-10-15T11:57:23;5.25;;;2.40;;
71838;SDS011;59687;37.520;15.068;2022-10-15T12:02:34;5.40;;;2.22;;
71838;SDS011;59687;37.520;15.068;2022-10-15T12:05:12;4.97;;;2.10;;
71838;SDS011;59687;37.520;15.068;2022-10-15T12:07:46;5.38;;;2.30;;
71838;SDS011;59687;37.520;15.068;2022-10-15T12:10:28;7.15;;;2.28;;
71838;SDS011;59687;37.520;15.068;2022-10-15T12:13:19;5.57;;;2.40;;
71838;SDS011;59687;37.520;15.068;2022-10-15T12:18:38;5.73;;;2.17;;
71838;SDS011;59687;37.520;15.068;2022-10-15T12:24:03;6.22;;;2.30;;
71838;SDS011;59687;37.520;15.068;2022-10-15T12:26:52;5.25;;;2.10;;
71838;SDS011;59687;37.520;15.068;2022-10-15T12:29:20;6.57;;;2.22;;
71838;SDS011;59687;37.520;15.068;2022-10-15T12:31:52;6.20;;;2.50;;
71838;SDS011;59687;37.520;15.068;2022-10-15T12:34:31;6.55;;;2.47;;
71838;SDS011;59687;37.520;15.068;2022-10-15T12:37:15;4.90;;;1.90;;
71838;SDS011;59687;37.520;15.068;2022-10-15T12:39:44;6.07;;;2.25;;
71838;SDS011;59687;37.520;15.068;2022-10-15T12:42:27;6.88;;;2.42;;
71838;SDS011;59687;37.520;15.068;2022-10-15T12:45:02;5.70;;;2.03;;
71838;SDS011;59687;37.520;15.068;2022-10-15T12:50:20;5.47;;;2.38;;
71838;SDS011;59687;37.520;15.068;2022-10-15T12:55:37;6.03;;;2.40;;
71838;SDS011;59687;37.520;15.068;2022-10-15T13:01:03;5.85;;;2.20;;
71838;SDS011;59687;37.520;15.068;2022-10-15T13:03:36;4.93;;;1.73;;
71838;SDS011;59687;37.520;15.068;2022-10-15T13:06:30;5.63;;;2.13;;
71838;SDS011;59687;37.520;15.068;2022-10-15T13:16:44;6.82;;;2.40;;
71838;SDS011;59687;37.520;15.068;2022-10-15T13:22:25;5.63;;;2.17;;
71838;SDS011;59687;37.520;15.068;2022-10-15T13:24:54;5.20;;;2.20;;
71838;SDS011;59687;37.520;15.068;2022-10-15T13:27:26;5.05;;;2.10;;
71838;SDS011;59687;37.520;15.068;2022-10-15T13:30:03;4.35;;;1.90;;
71838;SDS011;59687;37.520;15.068;2022-10-15T13:32:52;5.88;;;1.90;;
71838;SDS011;59687;37.520;15.068;2022-10-15T13:35:25;4.72;;;2.00;;
71838;SDS011;59687;37.520;15.068;2022-10-15T13:37:59;7.67;;;2.40;;
71838;SDS011;59687;37.520;15.068;2022-10-15T13:40:31;4.85;;;2.10;;
71838;SDS011;59687;37.520;15.068;2022-10-15T13:46:15;5.35;;;2.20;;
71838;SDS011;59687;37.520;15.068;2022-10-15T13:48:42;5.53;;;2.30;;
71838;SDS011;59687;37.520;15.068;2022-10-15T13:51:09;6.20;;;2.43;;
71838;SDS011;59687;37.520;15.068;2022-10-15T13:53:39;6.55;;;2.30;;
71838;SDS011;59687;37.520;15.068;2022-10-15T13:56:29;5.75;;;2.28;;
71838;SDS011;59687;37.520;15.068;2022-10-15T13:58:58;8.85;;;2.15;;
71838;SDS011;59687;37.520;15.068;2022-10-15T14:01:27;6.63;;;2.65;;
71838;SDS011;59687;37.520;15.068;2022-10-15T14:03:56;6.33;;;2.20;;
71838;SDS011;59687;37.520;15.068;2022-10-15T14:09:00;5.97;;;2.97;;
71838;SDS011;59687;37.520;15.068;2022-10-15T14:11:52;10.95;;;3.17;;
71838;SDS011;59687;37.520;15.068;2022-10-15T14:14:40;5.07;;;2.47;;
71838;SDS011;59687;37.520;15.068;2022-10-15T14:19:55;7.28;;;3.17;;
71838;SDS011;59687;37.520;15.068;2022-10-15T14:22:33;7.50;;;3.60;;
71838;SDS011;59687;37.520;15.068;2022-10-15T14:25:00;8.50;;;3.10;;
71838;SDS011;59687;37.520;15.068;2022-10-15T14:27:35;7.72;;;3.28;;
71838;SDS011;59687;37.520;15.068;2022-10-15T14:30:11;6.20;;;3.47;;
71838;SDS011;59687;37.520;15.068;2022-10-15T14:32:44;7.63;;;3.60;;
71838;SDS011;59687;37.520;15.068;2022-10-15T14:35:30;5.88;;;3.17;;
71838;SDS011;59687;37.520;15.068;2022-10-15T14:38:03;7.63;;;3.40;;
71838;SDS011;59687;37.520;15.068;2022-10-15T14:40:55;5.50;;;2.90;;
71838;SDS011;59687;37.520;15.068;2022-10-15T14:43:42;8.30;;;3.20;;
71838;SDS011;59687;37.520;15.068;2022-10-15T14:46:18;6.55;;;3.15;;
71838;SDS011;59687;37.520;15.068;2022-10-15T14:48:46;7.65;;;3.25;;
71838;SDS011;59687;37.520;15.068;2022-10-15T14:51:18;6.45;;;3.47;;
71838;SDS011;59687;37.520;15.068;2022-10-15T14:53:50;8.13;;;3.40;;
71838;SDS011;59687;37.520;15.068;2022-10-15T14:56:19;9.43;;;3.57;;
71838;SDS011;59687;37.520;15.068;2022-10-15T14:58:53;7.15;;;3.25;;
71838;SDS011;59687;37.520;15.068;2022-10-15T15:01:22;6.72;;;3.45;;
71838;SDS011;59687;37.520;15.068;2022-10-15T15:03:53;8.48;;;3.63;;
71838;SDS011;59687;37.520;15.068;2022-10-15T15:06:21;6.63;;;3.20;;
71838;SDS011;59687;37.520;15.068;2022-10-15T15:08:48;7.13;;;3.53;;
71838;SDS011;59687;37.520;15.068;2022-10-15T15:11:19;8.75;;;3.35;;
71838;SDS011;59687;37.520;15.068;2022-10-15T15:13:48;6.63;;;3.80;;
71838;SDS011;59687;37.520;15.068;2022-10-15T15:16:17;7.35;;;3.28;;
71838;SDS011;59687;37.520;15.068;2022-10-15T15:18:46;7.97;;;3.75;;
71838;SDS011;59687;37.520;15.068;2022-10-15T15:21:15;8.17;;;3.77;;
71838;SDS011;59687;37.520;15.068;2022-10-15T15:23:49;7.30;;;3.50;;
71838;SDS011;59687;37.520;15.068;2022-10-15T15:26:16;9.48;;;3.78;;
71838;SDS011;59687;37.520;15.068;2022-10-15T15:28:46;6.70;;;2.90;;
71838;SDS011;59687;37.520;15.068;2022-10-15T15:31:15;7.75;;;3.38;;
71838;SDS011;59687;37.520;15.068;2022-10-15T15:33:43;5.97;;;3.40;;
71838;SDS011;59687;37.520;15.068;2022-10-15T15:38:40;6.65;;;3.58;;
71838;SDS011;59687;37.520;15.068;2022-10-15T15:41:11;6.97;;;3.42;;
71838;SDS011;59687;37.520;15.068;2022-10-15T15:43:42;6.05;;;3.38;;
71838;SDS011;59687;37.520;15.068;2022-10-15T15:46:10;7.77;;;3.60;;
71838;SDS011;59687;37.520;15.068;2022-10-15T15:48:37;8.07;;;3.88;;
71838;SDS011;59687;37.520;15.068;2022-10-15T15:51:18;8.15;;;3.53;;
71838;SDS011;59687;37.520;15.068;2022-10-15T15:53:46;7.10;;;3.70;;
71838;SDS011;59687;37.520;15.068;2022-10-15T15:56:13;7.63;;;3.28;;
71838;SDS011;59687;37.520;15.068;2022-10-15T15:58:41;8.77;;;4.00;;
71838;SDS011;59687;37.520;15.068;2022-10-15T16:01:09;7.90;;;3.80;;
71838;SDS011;59687;37.520;15.068;2022-10-15T16:03:35;8.55;;;4.00;;
71838;SDS011;59687;37.520;15.068;2022-10-15T16:06:06;8.63;;;4.10;;
71838;SDS011;59687;37.520;15.068;2022-10-15T16:08:34;9.27;;;4.13;;
71838;SDS011;59687;37.520;15.068;2022-10-15T16:11:03;8.77;;;4.43;;
71838;SDS011;59687;37.520;15.068;2022-10-15T16:13:32;10.52;;;3.97;;
71838;SDS011;59687;37.520;15.068;2022-10-15T16:16:00;7.85;;;3.92;;
71838;SDS011;59687;37.520;15.068;2022-10-15T16:18:27;8.18;;;4.47;;
71838;SDS011;59687;37.520;15.068;2022-10-15T16:20:54;8.88;;;3.90;;
71838;SDS011;59687;37.520;15.068;2022-10-15T16:23:21;8.87;;;4.50;;
71838;SDS011;59687;37.520;15.068;2022-10-15T16:25:48;8.15;;;3.90;;
71838;SDS011;59687;37.520;15.068;2022-10-15T16:28:15;8.77;;;4.22;;
71838;SDS011;59687;37.520;15.068;2022-10-15T16:30:42;7.82;;;4.15;;
71838;SDS011;59687;37.520;15.068;2022-10-15T16:33:09;8.15;;;4.20;;
71838;SDS011;59687;37.520;15.068;2022-10-15T16:35:36;8.83;;;4.70;;
71838;SDS011;59687;37.520;15.068;2022-10-15T16:38:03;9.00;;;4.35;;
71838;SDS011;59687;37.520;15.068;2022-10-15T16:40:30;10.57;;;4.55;;
71838;SDS011;59687;37.520;15.068;2022-10-15T16:42:57;9.32;;;4.78;;
71838;SDS011;59687;37.520;15.068;2022-10-15T16:45:24;9.23;;;4.80;;
71838;SDS011;59687;37.520;15.068;2022-10-15T16:47:52;9.93;;;4.60;;
71838;SDS011;59687;37.520;15.068;2022-10-15T16:50:19;8.90;;;4.13;;
71838;SDS011;59687;37.520;15.068;2022-10-15T16:52:46;9.10;;;4.38;;
71838;SDS011;59687;37.520;15.068;2022-10-15T16:55:13;7.28;;;3.72;;
71838;SDS011;59687;37.520;15.068;2022-10-15T16:57:42;9.20;;;4.57;;
71838;SDS011;59687;37.520;15.068;2022-10-15T17:00:10;8.93;;;4.63;;
71838;SDS011;59687;37.520;15.068;2022-10-15T17:02:37;12.00;;;5.40;;